Time;durP1;ratioP1;P1;durP2;ratioP2;P2;SDS_P1;SDS_P2;PMS_P1;PMS_P2;Temp;Humidity;BMP_temperature;BMP_pressure;BME280_temperature;BME280_humidity;BME280_pressure;Samples;Min_cycle;Max_cycle;Signal;HPM_P1;HPM_P2
2022/05/11 07:08:36;;;;;;;;;;;;;;;20.19;51.27;101255.75;5752766;23;19933;-79
2022/05/11 07:14:24;;;;;;;;;;;;;;;20.44;49.40;101251.50;4959125;28;19914;-81
2022/05/11 07:17:08;;;;;;;;;;;;;;;20.53;49.11;101261.47;4954029;28;19919;-80
2022/05/11 07:19:53;;;;;;;;;;;;;;;20.60;49.48;101247.78;4947022;28;19915;-82
2022/05/11 07:22:38;;;;;;;;;;;;;;;20.56;49.20;101258.78;4947555;28;20301;-81
2022/05/11 07:25:24;;;;;;;;;;;;;;;20.57;49.06;101256.84;4948647;28;19914;-80
2022/05/11 07:28:09;;;;;;;;;;;;;;;20.57;49.35;101254.84;4933071;28;19914;-80
2022/05/11 07:30:53;;;;;;;;;;;;;;;20.52;49.39;101254.38;4944409;29;19922;-80
2022/05/11 07:33:38;;;;;;;;;;;;;;;20.54;49.69;101260.31;4954152;28;19915;-80
2022/05/11 07:36:24;;;;;;;;;;;;;;;20.62;49.30;101253.75;4962962;28;19918;-81
2022/05/11 07:39:08;;;;;;;;;;;;;;;20.67;49.09;101262.50;4950949;28;19919;-81
2022/05/11 07:41:55;;;;;;;;;;;;;;;20.65;49.53;101266.81;4936649;28;19922;-81
2022/05/11 07:44:40;;;;;;;;;;;;;;;20.73;48.83;101263.00;4938759;29;19914;-81
2022/05/11 07:47:24;;;;;;;;;;;;;;;20.80;49.18;101254.84;4953724;28;19915;-82
2022/05/11 07:50:13;;;;;;;;;;;;;;;20.83;49.20;101256.84;4955230;28;19914;-81
2022/05/11 07:52:58;;;;;;;;;;;;;;;20.80;49.09;101258.41;4956824;28;19914;-79
2022/05/11 07:55:43;;;;;;;;;;;;;;;20.92;48.88;101265.69;4955576;28;19981;-80
2022/05/11 08:01:31;;;;;;;;;;;;;;;20.91;49.01;101255.78;4956105;28;20365;-82
2022/05/11 08:04:15;;;;;;;;;;;;;;;20.93;48.97;101261.72;4973746;28;19918;-82
2022/05/11 08:07:00;;;;;;;;;;;;;;;20.83;49.01;101256.84;4960370;28;19919;-82
2022/05/11 08:09:45;;;;;;;;;;;;;;;20.73;49.44;101254.72;4938203;28;19914;-81
2022/05/11 08:12:30;;;;;;;;;;;;;;;20.75;49.37;101247.66;4952306;28;19922;-80
2022/05/11 08:15:15;;;;;;;;;;;;;;;20.87;48.96;101246.66;4943355;28;19914;-82
2022/05/11 08:18:00;;;;;;;;;;;;;;;20.74;49.16;101250.78;4951414;28;19922;-79
2022/05/11 08:20:46;;;;;;;;;;;;;;;20.86;49.10;101248.63;4952345;29;19914;-82
2022/05/11 08:23:31;;;;;;;;;;;;;;;20.84;48.88;101245.41;4955300;28;20373;-81
2022/05/11 08:26:16;;;;;;;;;;;;;;;20.94;48.70;101249.50;4969829;28;19914;-82
2022/05/11 08:29:00;;;;;;;;;;;;;;;20.94;48.74;101249.50;4967560;28;19914;-80
2022/05/11 08:34:49;;;;;;;;;;;;;;;21.02;48.37;101242.94;4955396;28;20381;-80
2022/05/11 08:37:34;;;;;;;;;;;;;;;21.08;48.22;101246.94;4973022;28;19923;-81
2022/05/11 08:40:35;;;;;;;;;;;;;;;20.96;48.72;101246.38;4957493;28;20297;-81
2022/05/11 08:43:19;;;;;;;;;;;;;;;21.23;48.26;101251.53;4968394;28;19918;-81
2022/05/11 08:46:20;;;;;;;;;;;;;;;21.16;48.42;101253.41;4972271;28;19914;-81
2022/05/11 08:49:10;;;;;;;;;;;;;;;21.13;48.29;101252.16;4969693;28;20297;-80
2022/05/11 08:52:00;;;;;;;;;;;;;;;21.50;47.42;101254.25;4967728;28;19915;-79
2022/05/11 08:54:55;;;;;;;;;;;;;;;21.62;47.14;101249.28;4971245;28;20191;-80
2022/05/11 08:57:41;;;;;;;;;;;;;;;21.57;47.14;101249.63;4968720;28;19922;-80
2022/05/11 09:00:26;;;;;;;;;;;;;;;21.55;47.68;101251.16;4967250;28;20372;-80
2022/05/11 09:03:14;;;;;;;;;;;;;;;21.60;47.36;101239.75;4971088;28;19914;-81
2022/05/11 09:05:59;;;;;;;;;;;;;;;21.53;47.74;101243.25;4968927;28;19914;-80
2022/05/11 09:08:44;;;;;;;;;;;;;;;21.73;47.44;101241.91;4953891;28;19914;-81
2022/05/11 09:11:33;;;;;;;;;;;;;;;21.71;47.75;101243.47;4957172;28;19914;-78
2022/05/11 09:14:21;;;;;;;;;;;;;;;21.81;47.21;101242.78;4968931;28;19919;-79
2022/05/11 09:17:19;;;;;;;;;;;;;;;21.90;46.90;101248.81;4967310;28;19918;-80
2022/05/11 09:20:18;;;;;;;;;;;;;;;21.77;47.13;101253.03;4953849;28;19915;-79
2022/05/11 09:23:03;;;;;;;;;;;;;;;21.80;47.43;101252.25;4967587;28;19914;-81
2022/05/11 09:25:59;;;;;;;;;;;;;;;21.85;47.04;101249.16;4957791;28;19919;-79
2022/05/11 09:28:45;;;;;;;;;;;;;;;21.75;47.02;101247.84;4968983;28;19914;-80
2022/05/11 09:31:31;;;;;;;;;;;;;;;21.60;47.73;101239.75;4967220;28;19918;-80
2022/05/11 09:34:27;;;;;;;;;;;;;;;21.67;47.68;101246.19;4953898;29;19915;-80
2022/05/11 09:37:27;;;;;;;;;;;;;;;21.93;47.15;101239.75;4968613;28;19940;-80
2022/05/11 09:40:14;;;;;;;;;;;;;;;22.13;46.62;101237.63;4942154;28;19915;-80
2022/05/11 09:43:01;;;;;;;;;;;;;;;22.06;47.30;101240.31;4941984;29;19914;-81
2022/05/11 09:45:47;;;;;;;;;;;;;;;22.18;46.35;101229.75;4941575;28;19915;-79
2022/05/11 09:48:32;;;;;;;;;;;;;;;21.94;46.66;101232.28;4962298;28;19915;-82
2022/05/11 09:51:22;;;;;;;;;;;;;;;22.04;47.08;101237.94;4934636;29;20394;-81
2022/05/11 09:54:14;;;;;;;;;;;;;;;22.26;46.28;101233.38;4939150;29;20385;-80
2022/05/11 09:56:59;;;;;;;;;;;;;;;22.14;46.56;101240.03;4932640;29;19919;-78
2022/05/11 09:59:49;;;;;;;;;;;;;;;22.25;46.19;101237.31;4938209;29;19914;-82
2022/05/11 10:02:43;;;;;;;;;;;;;;;22.12;46.79;101230.47;4938213;29;19914;-82
2022/05/11 10:05:30;;;;;;;;;;;;;;;22.22;46.26;101245.59;4941849;29;19918;-82
2022/05/11 10:08:20;;;;;;;;;;;;;;;22.18;46.35;101240.03;4939871;29;19922;-79
2022/05/11 10:11:16;;;;;;;;;;;;;;;22.28;46.50;101238.53;4937962;29;19915;-80
2022/05/11 10:14:00;;;;;;;;;;;;;;;22.10;46.97;101238.38;4941086;29;19918;-80
2022/05/11 10:23:05;;;;;;;;;;;;;;;22.35;46.15;101233.84;4938616;29;20332;-78
2022/05/11 10:25:55;;;;;;;;;;;;;;;22.54;45.96;101238.38;4946964;28;19919;-80
2022/05/11 10:28:47;;;;;;;;;;;;;;;22.46;46.20;101236.72;4944659;28;19918;-80
2022/05/11 10:31:46;;;;;;;;;;;;;;;22.47;46.48;101224.47;4939369;28;19922;-79
2022/05/11 10:34:42;;;;;;;;;;;;;;;22.45;46.36;101218.53;4935745;28;20297;-80
2022/05/11 10:37:27;;;;;;;;;;;;;;;22.34;46.61;101225.94;4935793;28;19918;-81
2022/05/11 10:40:31;;;;;;;;;;;;;;;22.65;45.60;101219.88;4937821;29;20378;-80
2022/05/11 10:43:36;;;;;;;;;;;;;;;22.27;46.63;101221.13;4940100;29;20389;-79
2022/05/11 10:46:34;;;;;;;;;;;;;;;22.46;46.42;101214.53;4936173;29;19915;-81
2022/05/11 10:49:26;;;;;;;;;;;;;;;22.31;46.70;101210.06;4938459;29;19994;-79
2022/05/11 10:52:29;;;;;;;;;;;;;;;21.95;47.75;101209.72;4937159;29;19919;-80
2022/05/11 10:55:23;;;;;;;;;;;;;;;22.13;47.43;101202.41;4937054;29;19915;-80
2022/05/11 10:58:20;;;;;;;;;;;;;;;22.49;46.33;101211.03;4939002;29;19919;-80
2022/05/11 11:01:04;;;;;;;;;;;;;;;22.10;47.13;101205.13;4936520;29;19914;-79
2022/05/11 11:03:58;;;;;;;;;;;;;;;22.50;46.60;101207.06;4936991;29;20387;-82
2022/05/11 11:07:14;;;;;;;;;;;;;;;22.79;45.50;101197.81;4944475;28;19914;-80
2022/05/11 11:10:07;;;;;;;;;;;;;;;22.50;45.84;101202.31;4957702;28;19915;-81
2022/05/11 11:13:12;;;;;;;;;;;;;;;22.34;45.82;101192.69;4939034;29;19914;-81
2022/05/11 11:15:57;;;;;;;;;;;;;;;22.52;45.74;101183.31;4958859;28;19918;-81
2022/05/11 11:18:44;;;;;;;;;;;;;;;22.56;45.94;101184.13;4938985;29;19919;-80
2022/05/11 11:21:29;;;;;;;;;;;;;;;22.38;46.26;101187.97;4937378;29;19930;-79
2022/05/11 11:24:24;;;;;;;;;;;;;;;22.29;46.53;101184.72;4948573;28;19914;-80
2022/05/11 11:27:10;;;;;;;;;;;;;;;22.27;46.13;101179.56;4944169;28;20301;-81
2022/05/11 11:30:13;;;;;;;;;;;;;;;22.52;45.93;101177.78;4939242;28;19914;-81
2022/05/11 11:33:16;;;;;;;;;;;;;;;22.38;45.87;101182.41;4951289;28;19914;-80
2022/05/11 11:36:02;;;;;;;;;;;;;;;22.37;46.25;101180.81;4963972;28;20397;-80
2022/05/11 11:38:49;;;;;;;;;;;;;;;22.44;45.92;101170.59;4968940;28;19918;-78
2022/05/11 11:41:33;;;;;;;;;;;;;;;22.69;45.65;101176.31;4947205;28;19915;-81
2022/05/11 11:44:21;;;;;;;;;;;;;;;23.11;44.43;101175.78;4956016;28;19918;-79
2022/05/11 11:47:27;;;;;;;;;;;;;;;22.94;45.00;101171.75;4943461;29;19915;-79
2022/05/11 11:50:32;;;;;;;;;;;;;;;22.57;45.36;101171.06;4935053;29;19914;-82
2022/05/11 11:53:33;;;;;;;;;;;;;;;22.39;46.23;101170.97;4935854;29;19914;-80
2022/05/11 11:56:24;;;;;;;;;;;;;;;22.37;46.30;101159.44;4938320;29;19919;-79
2022/05/11 11:59:11;;;;;;;;;;;;;;;22.38;46.69;101149.97;4940401;28;20309;-82
2022/05/11 12:02:01;;;;;;;;;;;;;;;22.49;45.93;101158.34;4940759;28;19914;-79
2022/05/11 12:04:52;;;;;;;;;;;;;;;22.61;45.68;101152.47;4950518;28;20382;-79
2022/05/11 12:17:23;;;;;;;;;;;;;;;22.70;45.83;101144.63;4944854;28;19918;-78
2022/05/11 12:20:10;;;;;;;;;;;;;;;22.47;46.10;101138.53;4935705;28;19915;-80
2022/05/11 12:22:57;;;;;;;;;;;;;;;22.69;45.56;101131.94;4930633;29;19914;-78
2022/05/11 12:25:49;;;;;;;;;;;;;;;22.95;45.24;101128.97;4957381;28;19915;-80
2022/05/11 12:28:37;;;;;;;;;;;;;;;22.94;44.84;101127.38;4946028;28;19914;-81
2022/05/11 12:31:26;;;;;;;;;;;;;;;22.51;46.10;101117.16;4959604;28;19914;-80
2022/05/11 12:34:10;;;;;;;;;;;;;;;22.49;46.18;101122.31;4940905;28;19937;-78
2022/05/11 12:36:55;;;;;;;;;;;;;;;22.51;46.15;101125.47;4959846;28;19918;-78
2022/05/11 12:39:40;;;;;;;;;;;;;;;22.57;45.90;101118.41;4968653;28;19914;-78
2022/05/11 12:42:39;;;;;;;;;;;;;;;22.71;45.39;101121.28;4970151;28;19915;-79
2022/05/11 12:45:35;;;;;;;;;;;;;;;23.01;44.49;101109.94;4967765;28;20389;-79
2022/05/11 12:48:22;;;;;;;;;;;;;;;22.99;44.77;101107.56;4957203;28;19914;-79
2022/05/11 12:51:07;;;;;;;;;;;;;;;22.85;45.13;101104.75;4955764;28;19915;-80
2022/05/11 12:53:52;;;;;;;;;;;;;;;22.80;44.90;101098.75;4959450;28;19914;-79
2022/05/11 12:56:40;;;;;;;;;;;;;;;22.76;45.14;101090.41;4971218;28;19914;-79
2022/05/11 12:59:27;;;;;;;;;;;;;;;22.76;45.03;101098.72;4944504;28;19919;-80
2022/05/11 13:02:16;;;;;;;;;;;;;;;23.11;44.21;101091.75;4933957;28;20313;-80
2022/05/11 13:05:02;;;;;;;;;;;;;;;22.94;44.55;101087.72;4950546;28;19918;-80
2022/05/11 13:07:57;;;;;;;;;;;;;;;23.18;43.10;101089.78;4957982;28;19914;-80
2022/05/11 13:10:43;;;;;;;;;;;;;;;22.98;43.98;101083.78;4932799;29;19915;-79
2022/05/11 13:13:30;;;;;;;;;;;;;;;22.88;44.30;101086.50;4946377;28;19915;-79
2022/05/11 13:16:17;;;;;;;;;;;;;;;22.79;44.57;101083.31;4938308;28;20377;-77
2022/05/11 13:19:20;;;;;;;;;;;;;;;22.86;44.06;101070.25;4954557;28;19919;-79
2022/05/11 13:22:11;;;;;;;;;;;;;;;23.42;43.07;101077.16;4933492;28;20639;-77
2022/05/11 13:24:58;;;;;;;;;;;;;;;23.21;43.42;101077.13;4901675;28;19922;-78
2022/05/11 13:27:46;;;;;;;;;;;;;;;23.22;43.27;101070.38;4924275;29;19919;-79
2022/05/11 13:30:31;;;;;;;;;;;;;;;23.23;42.41;101069.19;4923362;28;19922;-80
2022/05/11 13:33:28;;;;;;;;;;;;;;;24.02;40.95;101055.03;4923264;28;19923;-78
2022/05/11 13:36:12;;;;;;;;;;;;;;;24.06;40.85;101060.56;4922865;29;20373;-79
2022/05/11 13:39:00;;;;;;;;;;;;;;;23.65;41.82;101055.41;4943287;28;19918;-80
2022/05/11 13:41:45;;;;;;;;;;;;;;;23.11;43.41;101061.25;4937993;28;19922;-78
2022/05/11 13:44:36;;;;;;;;;;;;;;;23.61;41.62;101059.38;4937035;28;19915;-80
2022/05/11 13:50:35;;;;;;;;;;;;;;;23.38;42.46;101043.06;4946851;28;19914;-77
2022/05/11 13:53:19;;;;;;;;;;;;;;;23.77;41.22;101041.13;4909993;29;19915;-79
2022/05/11 13:56:04;;;;;;;;;;;;;;;23.19;43.10;101038.66;4936796;29;20365;-80
2022/05/11 13:59:05;;;;;;;;;;;;;;;22.97;43.72;101048.09;4952837;28;19923;-79
2022/05/11 14:01:50;;;;;;;;;;;;;;;22.80;43.89;101037.75;4947725;28;20305;-79
2022/05/11 14:04:35;;;;;;;;;;;;;;;22.95;43.16;101033.84;4934936;28;19915;-79
2022/05/11 14:07:19;;;;;;;;;;;;;;;23.01;43.55;101038.59;4954263;28;20310;-77
2022/05/11 14:10:04;;;;;;;;;;;;;;;23.02;43.67;101029.09;4896947;29;19923;-78
2022/05/11 14:12:49;;;;;;;;;;;;;;;22.87;44.03;101029.44;4917703;28;20357;-78
2022/05/11 14:15:34;;;;;;;;;;;;;;;22.90;43.95;101020.34;4930753;28;20389;-79
2022/05/11 14:18:20;;;;;;;;;;;;;;;23.01;44.12;101015.63;4926923;28;19927;-78
2022/05/11 14:21:05;;;;;;;;;;;;;;;22.84;44.17;101013.59;4950711;28;19915;-79
2022/05/11 14:23:49;;;;;;;;;;;;;;;22.78;44.53;101015.94;4945095;29;20005;-79
2022/05/11 14:26:33;;;;;;;;;;;;;;;22.80;44.46;101015.56;4947865;28;19914;-79
2022/05/11 14:29:18;;;;;;;;;;;;;;;22.78;44.97;101017.94;4956985;28;19922;-78
2022/05/11 14:32:06;;;;;;;;;;;;;;;22.96;44.47;101005.69;4945615;28;20385;-79
2022/05/11 14:34:51;;;;;;;;;;;;;;;22.92;44.70;101009.66;4945298;28;19923;-79
2022/05/11 14:37:36;;;;;;;;;;;;;;;22.86;44.92;101009.22;4962145;28;19918;-79
2022/05/11 14:40:23;;;;;;;;;;;;;;;22.67;44.90;101009.53;4933899;28;19919;-79
2022/05/11 14:43:07;;;;;;;;;;;;;;;22.59;45.77;101007.94;4948414;28;19914;-80
2022/05/11 14:45:54;;;;;;;;;;;;;;;22.66;45.25;101012.69;4941174;28;20301;-80
2022/05/11 14:48:38;;;;;;;;;;;;;;;22.65;45.23;100992.50;4948602;28;19915;-79
2022/05/11 14:51:24;;;;;;;;;;;;;;;22.62;45.38;100996.06;4956618;28;19915;-79
2022/05/11 14:54:09;;;;;;;;;;;;;;;22.66;44.85;100991.31;4934368;29;20390;-77
2022/05/11 15:03:01;;;;;;;;;;;;;;;22.45;45.57;100994.00;4949328;28;20274;-80
2022/05/11 15:05:46;;;;;;;;;;;;;;;22.60;45.04;100981.81;4940999;29;19914;-79
2022/05/11 15:08:30;;;;;;;;;;;;;;;22.51;45.17;100989.66;4943507;28;19914;-80
2022/05/11 15:14:26;;;;;;;;;;;;;;;22.53;44.96;100988.09;4950627;28;19915;-79
2022/05/11 15:17:18;;;;;;;;;;;;;;;22.42;45.36;100980.91;4937408;29;19914;-79
2022/05/11 15:20:03;;;;;;;;;;;;;;;22.50;44.88;100988.09;4957319;28;20301;-79
2022/05/11 15:22:48;;;;;;;;;;;;;;;22.50;44.65;100979.78;4942596;28;19914;-79
2022/05/11 15:25:33;;;;;;;;;;;;;;;22.48;45.06;100988.47;4944213;29;19914;-79
2022/05/11 15:28:17;;;;;;;;;;;;;;;22.51;44.82;100986.88;4957040;28;19915;-80
2022/05/11 15:31:02;;;;;;;;;;;;;;;22.50;44.80;100985.31;4944889;28;20393;-79
2022/05/11 15:33:47;;;;;;;;;;;;;;;22.52;44.87;100977.41;4964672;28;19914;-79
2022/05/11 15:36:31;;;;;;;;;;;;;;;22.62;44.68;100982.19;4939866;29;19918;-79
2022/05/11 15:39:16;;;;;;;;;;;;;;;22.68;44.05;100966.78;4934688;29;19918;-79
2022/05/11 15:42:01;;;;;;;;;;;;;;;22.66;44.28;100969.13;4953266;28;19914;-80
2022/05/11 15:44:45;;;;;;;;;;;;;;;22.59;44.43;100972.69;4934798;29;19922;-78
2022/05/11 15:47:30;;;;;;;;;;;;;;;22.63;44.34;100972.69;4957079;28;20414;-79
2022/05/11 15:50:14;;;;;;;;;;;;;;;22.70;44.41;100972.72;4933835;29;20378;-79
2022/05/11 15:52:59;;;;;;;;;;;;;;;22.73;44.14;100969.19;4953582;28;20373;-79
2022/05/11 15:55:44;;;;;;;;;;;;;;;22.72;44.05;100978.69;4931476;29;20398;-79
2022/05/11 15:58:30;;;;;;;;;;;;;;;22.71;43.96;100968.78;4940305;28;19997;-78
2022/05/11 16:01:17;;;;;;;;;;;;;;;22.73;44.43;100971.97;4933933;28;19915;-79
2022/05/11 16:04:02;;;;;;;;;;;;;;;22.77;44.26;100961.66;4941440;28;20289;-79
2022/05/11 16:06:46;;;;;;;;;;;;;;;22.78;44.26;100965.25;4931687;29;19915;-79
2022/05/11 16:09:31;;;;;;;;;;;;;;;22.88;43.93;100964.47;4942065;29;19941;-80
2022/05/11 16:12:16;;;;;;;;;;;;;;;22.94;43.51;100960.94;4947269;28;20377;-79
2022/05/11 16:15:01;;;;;;;;;;;;;;;23.10;42.74;100957.00;4946173;28;19914;-78
2022/05/11 16:20:49;;;;;;;;;;;;;;;22.81;43.38;100961.66;4938820;28;19915;-80
2022/05/11 16:23:34;;;;;;;;;;;;;;;22.75;43.67;100958.50;4947736;28;20894;-77
2022/05/11 16:26:18;;;;;;;;;;;;;;;22.72;44.07;100953.72;4922907;29;19922;-81
2022/05/11 16:29:03;;;;;;;;;;;;;;;22.66;44.43;100954.47;4927410;28;19923;-79
2022/05/11 16:31:49;;;;;;;;;;;;;;;22.72;44.09;100956.50;4942051;28;20246;-78
2022/05/11 16:34:33;;;;;;;;;;;;;;;22.71;43.79;100949.38;4934101;28;20379;-77
2022/05/11 16:37:19;;;;;;;;;;;;;;;22.70;43.97;100945.00;4934590;28;19919;-79
2022/05/11 16:40:04;;;;;;;;;;;;;;;22.66;43.79;100949.72;4938718;29;19918;-79
2022/05/11 16:42:49;;;;;;;;;;;;;;;22.55;44.00;100948.91;4946244;28;19918;-77
2022/05/11 16:45:33;;;;;;;;;;;;;;;22.50;44.26;100944.50;4945655;28;19915;-79
2022/05/11 16:48:19;;;;;;;;;;;;;;;22.57;43.55;100947.31;4940537;28;19919;-78
2022/05/11 16:51:04;;;;;;;;;;;;;;;22.60;43.18;100952.06;4946183;28;19915;-78
2022/05/11 16:53:49;;;;;;;;;;;;;;;22.66;43.01;100948.91;4943939;28;19914;-79
2022/05/11 16:56:34;;;;;;;;;;;;;;;22.75;42.63;100947.41;4939001;28;19914;-78
2022/05/11 16:59:19;;;;;;;;;;;;;;;22.78;42.72;100952.16;4940398;28;19923;-79
2022/05/11 17:02:04;;;;;;;;;;;;;;;22.76;43.06;100949.00;4937581;29;19914;-78
2022/05/11 17:04:48;;;;;;;;;;;;;;;22.73;42.81;100941.47;4936559;29;20289;-77
2022/05/11 17:07:33;;;;;;;;;;;;;;;22.73;42.88;100949.00;4942708;28;20362;-78
2022/05/11 17:10:18;;;;;;;;;;;;;;;22.74;42.89;100953.34;4942360;29;19919;-77
2022/05/11 17:13:04;;;;;;;;;;;;;;;22.77;42.89;100958.09;4937321;29;19914;-79
2022/05/11 17:15:56;;;;;;;;;;;;;;;22.75;42.91;100946.63;4942029;29;19915;-79
2022/05/11 17:18:40;;;;;;;;;;;;;;;22.79;43.05;100952.97;4952305;28;19919;-77
2022/05/11 17:21:26;;;;;;;;;;;;;;;22.79;42.82;100939.91;4938986;29;20385;-78
2022/05/11 17:24:10;;;;;;;;;;;;;;;22.81;43.20;100945.03;4938275;29;19915;-78
2022/05/11 17:26:54;;;;;;;;;;;;;;;22.81;43.00;100940.28;4955903;28;19914;-79
2022/05/11 17:29:39;;;;;;;;;;;;;;;22.85;43.20;100951.41;4938349;29;19914;-79
2022/05/11 17:32:23;;;;;;;;;;;;;;;22.89;43.16;100950.22;4927570;28;19915;-79
2022/05/11 17:35:08;;;;;;;;;;;;;;;22.88;43.39;100951.41;4923573;29;19915;-77
2022/05/11 17:37:53;;;;;;;;;;;;;;;22.93;43.04;100950.22;4930707;29;19927;-77
2022/05/11 17:40:38;;;;;;;;;;;;;;;22.95;43.05;100947.84;4931893;29;19915;-77
2022/05/11 17:43:23;;;;;;;;;;;;;;;22.92;43.67;100949.44;4943477;28;19918;-78
2022/05/11 17:46:07;;;;;;;;;;;;;;;22.95;43.63;100951.44;4940616;29;19915;-79
2022/05/11 17:48:52;;;;;;;;;;;;;;;22.97;43.77;100943.50;4920911;29;19923;-78
2022/05/11 17:51:38;;;;;;;;;;;;;;;22.88;43.92;100950.59;4952892;28;19936;-78
2022/05/11 17:54:22;;;;;;;;;;;;;;;22.89;44.22;100946.66;4948327;28;19922;-79
2022/05/11 17:57:07;;;;;;;;;;;;;;;22.88;43.88;100945.84;4932121;29;19914;-79
2022/05/11 17:59:52;;;;;;;;;;;;;;;22.87;44.27;100949.81;4933103;28;19922;-79
2022/05/11 18:02:37;;;;;;;;;;;;;;;22.87;44.19;100951.78;4939317;29;20390;-79
2022/05/11 18:05:21;;;;;;;;;;;;;;;22.84;44.57;100950.59;4939069;29;20394;-78
2022/05/11 18:08:07;;;;;;;;;;;;;;;22.87;44.51;100951.78;4937467;29;20374;-79
2022/05/11 18:10:52;;;;;;;;;;;;;;;22.85;44.48;100960.53;4938218;28;19918;-78
2022/05/11 18:13:37;;;;;;;;;;;;;;;22.83;44.89;100957.34;4939196;28;20385;-80
2022/05/11 18:16:22;;;;;;;;;;;;;;;22.84;44.95;100963.69;4932449;29;19918;-78
2022/05/11 18:19:06;;;;;;;;;;;;;;;22.83;44.81;100970.41;4931866;28;19919;-77
2022/05/11 18:21:51;;;;;;;;;;;;;;;22.83;44.91;100964.84;4946003;29;19914;-77
2022/05/11 18:24:35;;;;;;;;;;;;;;;22.83;45.28;100967.63;4956717;28;19915;-77
2022/05/11 18:27:20;;;;;;;;;;;;;;;22.86;45.31;100970.41;4947557;28;19963;-78
2022/05/11 18:30:05;;;;;;;;;;;;;;;22.87;45.37;100973.97;4946400;28;19977;-77
2022/05/11 18:32:51;;;;;;;;;;;;;;;22.88;46.51;100973.59;4939553;29;19915;-76
2022/05/11 18:35:35;;;;;;;;;;;;;;;22.89;47.17;100972.41;4950027;28;20265;-79
2022/05/11 18:38:21;;;;;;;;;;;;;;;22.89;46.88;100979.94;4949866;29;20029;-78
2022/05/11 18:41:06;;;;;;;;;;;;;;;22.88;46.57;100981.91;4937847;29;20297;-78
2022/05/11 18:43:51;;;;;;;;;;;;;;;22.87;46.78;100980.31;4940652;29;19914;-78
2022/05/11 18:46:35;;;;;;;;;;;;;;;22.86;46.53;100989.03;4942461;28;20305;-77
2022/05/11 18:49:19;;;;;;;;;;;;;;;22.84;46.58;100994.19;4937546;29;19914;-78
2022/05/11 18:52:04;;;;;;;;;;;;;;;22.82;47.12;100994.56;4955015;28;19918;-78
2022/05/11 18:54:49;;;;;;;;;;;;;;;22.83;46.60;101004.47;4936528;28;19915;-77
2022/05/11 18:57:36;;;;;;;;;;;;;;;22.76;46.38;100993.34;4941405;28;21742;-78
2022/05/11 19:00:22;;;;;;;;;;;;;;;22.85;46.81;100999.34;4931188;29;19923;-77
2022/05/11 19:03:08;;;;;;;;;;;;;;;22.71;47.14;101004.81;4956841;28;19915;-77
2022/05/11 19:05:52;;;;;;;;;;;;;;;22.63;47.12;101003.19;4936479;28;19915;-79
2022/05/11 19:08:37;;;;;;;;;;;;;;;22.66;47.47;101015.47;4938626;29;20298;-78
2022/05/11 19:11:21;;;;;;;;;;;;;;;22.64;47.56;101012.31;4948267;29;19918;-77
2022/05/11 19:14:06;;;;;;;;;;;;;;;22.63;47.58;101016.25;4938064;28;19915;-77
2022/05/11 19:16:53;;;;;;;;;;;;;;;22.61;47.25;101025.75;4933719;29;19914;-77
2022/05/11 19:19:37;;;;;;;;;;;;;;;22.57;47.49;101024.16;4926877;29;20391;-78
2022/05/11 19:22:22;;;;;;;;;;;;;;;22.61;47.50;101022.19;4928724;29;19919;-77
2022/05/11 19:25:07;;;;;;;;;;;;;;;22.62;47.05;101026.53;4930004;29;19923;-78
2022/05/11 19:27:51;;;;;;;;;;;;;;;22.60;47.26;101023.38;4980525;23;20409;-79
2022/05/11 19:30:38;;;;;;;;;;;;;;;22.58;47.20;101028.50;4945953;28;19923;-81
2022/05/11 19:33:23;;;;;;;;;;;;;;;22.52;47.19;101028.09;4935807;28;20259;-81
2022/05/11 19:36:10;;;;;;;;;;;;;;;22.56;47.61;101022.56;4938009;29;19918;-81
2022/05/11 19:38:55;;;;;;;;;;;;;;;22.54;47.29;101027.72;4928545;29;20374;-78
2022/05/11 19:41:40;;;;;;;;;;;;;;;22.48;47.31;101041.13;4917147;29;20395;-78
2022/05/11 19:44:26;;;;;;;;;;;;;;;22.46;47.42;101032.41;4912854;29;19919;-77
2022/05/11 19:47:12;;;;;;;;;;;;;;;22.49;47.67;101039.16;4919602;29;20293;-78
2022/05/11 19:49:57;;;;;;;;;;;;;;;22.47;48.16;101034.00;4918019;29;20309;-79
2022/05/11 19:52:42;;;;;;;;;;;;;;;22.48;50.18;101043.91;4914997;29;20318;-78
2022/05/11 19:55:27;;;;;;;;;;;;;;;22.47;50.00;101047.06;4917042;29;19914;-79
2022/05/11 19:58:13;;;;;;;;;;;;;;;22.50;51.32;101049.06;4925907;29;19915;-82
2022/05/11 20:00:59;;;;;;;;;;;;;;;22.47;50.35;101049.84;4921918;29;20837;-82
2022/05/11 20:03:44;;;;;;;;;;;;;;;22.40;50.88;101050.59;4938480;29;19919;-81
2022/05/11 20:06:29;;;;;;;;;;;;;;;22.37;50.20;101048.59;4941026;28;19915;-81
2022/05/11 20:09:13;;;;;;;;;;;;;;;22.31;50.92;101050.13;4943703;29;19918;-81
2022/05/11 20:11:58;;;;;;;;;;;;;;;22.27;50.51;101057.63;4936117;28;19919;-80
2022/05/11 20:14:43;;;;;;;;;;;;;;;22.35;50.23;101058.50;4935530;29;19915;-80
2022/05/11 20:17:27;;;;;;;;;;;;;;;22.39;50.33;101051.78;4930088;29;19919;-79
2022/05/11 20:20:12;;;;;;;;;;;;;;;22.42;50.56;101055.75;4918700;29;19915;-80
2022/05/11 20:22:57;;;;;;;;;;;;;;;22.44;50.58;101054.19;4933054;29;19914;-80
2022/05/11 20:25:41;;;;;;;;;;;;;;;22.37;50.45;101062.44;4952330;28;19915;-81
2022/05/11 20:28:26;;;;;;;;;;;;;;;22.41;50.22;101060.50;4939507;29;19919;-81
2022/05/11 20:37:20;;;;;;;;;;;;;;;22.35;50.63;101061.25;4949065;29;19923;-80
2022/05/11 20:40:07;;;;;;;;;;;;;;;22.34;50.75;101062.44;4926747;29;20390;-80
2022/05/11 20:42:52;;;;;;;;;;;;;;;22.32;50.62;101062.81;4925899;29;19915;-80
2022/05/11 20:45:37;;;;;;;;;;;;;;;22.32;50.77;101062.81;4925365;29;19915;-80
2022/05/11 20:48:21;;;;;;;;;;;;;;;22.33;51.00;101069.16;4925216;29;19914;-80
2022/05/11 20:51:06;;;;;;;;;;;;;;;22.29;51.21;101062.81;4924250;29;19919;-82
2022/05/11 20:53:50;;;;;;;;;;;;;;;22.22;51.46;101062.75;4931439;29;19915;-82
2022/05/11 20:56:35;;;;;;;;;;;;;;;22.17;51.37;101061.13;4942173;29;19918;-82
2022/05/11 20:59:20;;;;;;;;;;;;;;;22.18;51.48;101058.00;4925952;29;19915;-81
2022/05/11 21:02:06;;;;;;;;;;;;;;;22.15;51.74;101066.25;4924871;29;19915;-83
2022/05/11 21:04:51;;;;;;;;;;;;;;;22.16;52.25;101065.88;4932199;29;19915;-80
2022/05/11 21:07:36;;;;;;;;;;;;;;;22.13;52.30;101065.84;4931496;29;19915;-80
2022/05/11 21:10:22;;;;;;;;;;;;;;;22.14;52.32;101062.72;4936091;29;19915;-80
2022/05/11 21:13:07;;;;;;;;;;;;;;;22.14;52.28;101065.47;4933401;29;20017;-80
2022/05/11 21:15:52;;;;;;;;;;;;;;;22.15;52.35;101066.25;4930677;29;19915;-80
2022/05/11 21:18:36;;;;;;;;;;;;;;;22.11;52.55;101066.22;4933907;29;19915;-80
2022/05/11 21:21:20;;;;;;;;;;;;;;;22.11;52.66;101063.47;4928379;29;19915;-80
2022/05/11 21:24:07;;;;;;;;;;;;;;;22.06;52.66;101063.03;4929987;29;19915;-80
2022/05/11 21:26:52;;;;;;;;;;;;;;;22.06;52.74;101061.06;4934055;29;19918;-80
2022/05/11 21:29:37;;;;;;;;;;;;;;;22.06;52.67;101063.81;4929512;29;19915;-80
2022/05/11 21:32:22;;;;;;;;;;;;;;;22.04;52.74;101062.63;4930874;29;19915;-80
2022/05/11 21:35:07;;;;;;;;;;;;;;;22.03;52.43;101061.84;4928003;29;19915;-80
2022/05/11 21:37:52;;;;;;;;;;;;;;;22.02;52.68;101060.25;4937316;29;19907;-80
2022/05/11 21:40:40;;;;;;;;;;;;;;;22.01;53.11;101058.66;4942823;29;19915;-79
2022/05/11 21:43:25;;;;;;;;;;;;;;;22.02;52.74;101064.97;4932177;29;19915;-79
2022/05/11 21:46:10;;;;;;;;;;;;;;;22.02;53.06;101068.56;4932273;29;20080;-79
2022/05/11 21:48:56;;;;;;;;;;;;;;;22.03;52.76;101074.88;4933104;29;19927;-79
2022/05/11 21:51:40;;;;;;;;;;;;;;;22.02;52.83;101076.84;4932320;29;19915;-79
2022/05/11 21:54:26;;;;;;;;;;;;;;;22.05;52.50;101081.63;4933535;29;19915;-80
2022/05/11 21:57:12;;;;;;;;;;;;;;;22.05;52.60;101086.34;4949002;29;19924;-80
2022/05/11 21:59:57;;;;;;;;;;;;;;;22.00;52.55;101079.22;4933010;29;19914;-80
2022/05/11 22:02:41;;;;;;;;;;;;;;;21.95;53.40;101090.63;4931476;29;19916;-80
2022/05/11 22:05:26;;;;;;;;;;;;;;;21.87;53.43;101091.75;4933466;29;19915;-80
2022/05/11 22:08:11;;;;;;;;;;;;;;;21.82;53.25;101086.56;4940131;29;19919;-80
2022/05/11 22:10:55;;;;;;;;;;;;;;;21.85;52.81;101087.75;4934760;29;19915;-79